Time;durP1;ratioP1;P1;durP2;ratioP2;P2;SDS_P1;SDS_P2;PMS_P1;PMS_P2;Temp;Humidity;BMP_temperature;BMP_pressure;BME280_temperature;BME280_humidity;BME280_pressure;Samples;Min_cycle;Max_cycle;Signal;HPM_P1;HPM_P2
2023/03/06 00:01:53;;;;;;;1.70;0.10;;;2.10;99.90;;;;;;5032922;28;20025;-75
2023/03/06 00:04:19;;;;;;;2.60;0.22;;;2.10;99.90;;;;;;5033026;28;20104;-75
2023/03/06 00:06:44;;;;;;;1.40;0.13;;;2.10;99.90;;;;;;5032726;28;20021;-75
2023/03/06 00:09:10;;;;;;;2.05;0.32;;;2.10;99.90;;;;;;5018796;28;20473;-76
2023/03/06 00:11:36;;;;;;;1.20;0.20;;;2.10;99.90;;;;;;5036536;28;20048;-75
2023/03/06 00:14:02;;;;;;;1.27;0.20;;;2.20;99.90;;;;;;5036873;28;20029;-75
2023/03/06 00:16:27;;;;;;;1.88;0.20;;;2.20;99.90;;;;;;5018724;28;20481;-75
2023/03/06 00:18:53;;;;;;;1.48;0.20;;;2.20;99.90;;;;;;5036378;28;20064;-74
2023/03/06 00:21:19;;;;;;;3.20;0.57;;;2.20;99.90;;;;;;5036431;28;20452;-74
2023/03/06 00:23:44;;;;;;;3.03;0.40;;;2.20;99.90;;;;;;5036473;28;20084;-74
2023/03/06 00:26:10;;;;;;;2.08;0.30;;;2.30;99.90;;;;;;5036211;28;20028;-74
2023/03/06 00:28:36;;;;;;;4.03;0.57;;;2.20;99.90;;;;;;5036369;28;20033;-74
2023/03/06 00:31:02;;;;;;;0.93;0.10;;;2.30;99.90;;;;;;5036270;28;20021;-74
2023/03/06 00:33:27;;;;;;;3.38;0.35;;;2.30;99.90;;;;;;5036201;28;20034;-74
2023/03/06 00:35:53;;;;;;;2.30;0.28;;;2.30;99.90;;;;;;5018425;28;20136;-75
2023/03/06 00:38:19;;;;;;;0.70;0.10;;;2.30;99.90;;;;;;5018418;28;20022;-74
2023/03/06 00:40:44;;;;;;;2.55;0.25;;;2.30;99.90;;;;;;5018370;28;20033;-74
2023/03/06 00:43:11;;;;;;;3.35;0.75;;;2.30;99.90;;;;;;5018231;28;20029;-74
2023/03/06 00:45:37;;;;;;;1.25;0.30;;;2.30;99.90;;;;;;5036214;28;20029;-74
2023/03/06 00:48:03;;;;;;;2.90;0.38;;;2.30;99.90;;;;;;5018265;28;20017;-74
2023/03/06 00:50:29;;;;;;;2.60;0.28;;;2.30;99.90;;;;;;5035899;28;20045;-74
2023/03/06 00:52:54;;;;;;;4.55;0.88;;;2.30;99.90;;;;;;5017900;28;20041;-74
2023/03/06 00:55:20;;;;;;;2.85;0.80;;;2.30;99.90;;;;;;5017978;28;20033;-74
2023/03/06 00:57:45;;;;;;;5.82;1.15;;;2.40;99.90;;;;;;5018113;28;20021;-74
2023/03/06 01:00:12;;;;;;;2.35;0.80;;;2.40;99.90;;;;;;5035711;28;20068;-74
2023/03/06 01:02:38;;;;;;;4.22;1.52;;;2.30;99.90;;;;;;5035637;28;20488;-75
2023/03/06 01:05:04;;;;;;;1.73;0.63;;;2.40;99.90;;;;;;5017733;28;20259;-74
2023/03/06 01:07:32;;;;;;;2.55;1.48;;;2.30;99.90;;;;;;5035592;28;20476;-75
2023/03/06 01:09:58;;;;;;;3.25;1.23;;;2.30;99.90;;;;;;5035499;28;20524;-75
2023/03/06 01:12:24;;;;;;;4.45;1.17;;;2.30;99.90;;;;;;5035294;28;20029;-75
2023/03/06 01:14:50;;;;;;;3.92;1.45;;;2.30;99.90;;;;;;5035396;28;20055;-75
2023/03/06 01:17:16;;;;;;;3.25;1.35;;;2.30;99.90;;;;;;5017513;28;20500;-74
2023/03/06 01:19:41;;;;;;;5.63;1.80;;;2.30;99.90;;;;;;5017546;28;20028;-74
2023/03/06 01:22:07;;;;;;;2.95;1.60;;;2.30;99.90;;;;;;5035153;28;20030;-74
2023/03/06 01:24:32;;;;;;;6.10;2.75;;;2.30;99.90;;;;;;5017417;28;20022;-74
2023/03/06 01:26:58;;;;;;;8.15;2.85;;;2.30;99.90;;;;;;5017491;28;20393;-74
2023/03/06 01:29:25;;;;;;;5.22;2.47;;;2.30;99.90;;;;;;5035777;28;20516;-74
2023/03/06 01:31:50;;;;;;;4.60;2.63;;;2.30;99.90;;;;;;5034852;28;20025;-75
2023/03/06 01:34:16;;;;;;;6.78;2.92;;;2.20;99.90;;;;;;5035606;28;20465;-75
2023/03/06 01:36:42;;;;;;;5.10;2.83;;;2.20;99.90;;;;;;5017158;28;20025;-75
2023/03/06 01:39:08;;;;;;;9.23;3.50;;;2.10;99.90;;;;;;5034974;28;20477;-75
2023/03/06 01:41:33;;;;;;;7.15;3.40;;;2.10;99.90;;;;;;5017448;28;20017;-75
2023/03/06 01:43:59;;;;;;;7.80;2.83;;;2.10;99.90;;;;;;5035006;28;20029;-75
2023/03/06 01:46:31;;;;;;;5.47;2.80;;;2.00;99.90;;;;;;5016936;28;20038;-75
2023/03/06 01:49:03;;;;;;;7.22;3.55;;;2.00;99.90;;;;;;5017170;28;20024;-75
2023/03/06 01:51:33;;;;;;;8.70;3.47;;;1.90;99.90;;;;;;5016865;28;20017;-75
2023/03/06 01:54:03;;;;;;;10.23;3.78;;;1.90;99.90;;;;;;5016995;28;20017;-74
2023/03/06 01:56:28;;;;;;;7.03;4.25;;;1.90;99.90;;;;;;5034586;28;20029;-74
2023/03/06 01:58:55;;;;;;;8.45;4.13;;;1.80;99.90;;;;;;5016774;28;20033;-75
2023/03/06 02:01:22;;;;;;;9.85;5.28;;;1.80;99.90;;;;;;5016800;28;20489;-75
2023/03/06 02:03:48;;;;;;;13.23;4.63;;;1.80;99.90;;;;;;5034559;28;20410;-75
2023/03/06 02:06:18;;;;;;;9.88;4.50;;;1.80;99.90;;;;;;5034445;28;20036;-75
2023/03/06 02:08:46;;;;;;;9.05;4.93;;;1.70;99.90;;;;;;5034485;28;20026;-75
2023/03/06 02:11:13;;;;;;;11.20;4.63;;;1.60;99.90;;;;;;5016563;28;20116;-75
2023/03/06 02:13:40;;;;;;;9.02;4.53;;;1.60;99.90;;;;;;5016377;28;20533;-75
2023/03/06 02:16:08;;;;;;;12.40;4.88;;;1.50;99.90;;;;;;5034294;28;20080;-75
2023/03/06 02:18:34;;;;;;;10.50;5.13;;;1.50;99.90;;;;;;5034116;28;20080;-75
2023/03/06 02:21:04;;;;;;;8.27;4.63;;;1.50;99.90;;;;;;5016253;28;20021;-75
2023/03/06 02:23:46;;;;;;;9.60;4.65;;;1.40;99.90;;;;;;5034067;28;20026;-75
2023/03/06 02:26:12;;;;;;;11.30;4.85;;;1.40;99.90;;;;;;5016215;28;20025;-75
2023/03/06 02:28:38;;;;;;;10.57;4.90;;;1.50;99.90;;;;;;5016332;28;20026;-75
2023/03/06 02:31:05;;;;;;;8.75;4.75;;;1.80;99.90;;;;;;5033286;28;20370;-75
2023/03/06 02:33:31;;;;;;;10.63;5.22;;;1.50;99.90;;;;;;5033816;28;20045;-75
2023/03/06 02:35:58;;;;;;;10.68;4.45;;;1.50;99.90;;;;;;5016126;28;20027;-75
2023/03/06 02:38:28;;;;;;;14.48;5.30;;;1.50;99.90;;;;;;5033765;28;20083;-74
2023/03/06 02:40:56;;;;;;;8.38;4.47;;;1.50;99.90;;;;;;5033997;28;20511;-74
2023/03/06 02:43:27;;;;;;;12.40;5.18;;;1.50;99.90;;;;;;5033847;28;20022;-74
2023/03/06 02:45:53;;;;;;;11.05;4.90;;;1.60;99.90;;;;;;5033960;28;20053;-75
2023/03/06 02:48:19;;;;;;;8.55;4.80;;;1.60;99.90;;;;;;5033616;28;20025;-74
2023/03/06 02:50:46;;;;;;;6.70;3.50;;;1.60;99.90;;;;;;5033680;28;20388;-74
2023/03/06 02:53:14;;;;;;;9.68;4.32;;;1.70;99.90;;;;;;5033581;28;20036;-74
2023/03/06 02:55:40;;;;;;;8.13;4.28;;;1.70;99.90;;;;;;5033792;28;20374;-75
2023/03/06 02:58:06;;;;;;;9.02;4.07;;;2.00;99.90;;;;;;5015876;28;20112;-75
2023/03/06 03:00:33;;;;;;;6.80;3.60;;;1.80;99.90;;;;;;5016130;28;20025;-75
2023/03/06 03:02:59;;;;;;;7.03;2.90;;;1.90;99.90;;;;;;5033568;28;20029;-75
2023/03/06 03:05:25;;;;;;;6.55;3.67;;;1.90;99.90;;;;;;5033501;28;20057;-75
2023/03/06 03:07:50;;;;;;;7.63;3.33;;;2.00;99.90;;;;;;5015703;28;20068;-75
2023/03/06 03:10:16;;;;;;;7.35;2.78;;;2.00;99.90;;;;;;5015696;28;20025;-75
2023/03/06 03:12:42;;;;;;;5.93;2.70;;;2.30;99.90;;;;;;5033383;28;20030;-75
2023/03/06 03:15:08;;;;;;;10.35;3.35;;;2.10;99.90;;;;;;5015781;28;20393;-75
2023/03/06 03:17:36;;;;;;;8.13;3.47;;;2.10;99.90;;;;;;5015797;28;20033;-75
2023/03/06 03:20:02;;;;;;;4.47;2.85;;;2.20;99.90;;;;;;5033256;28;20030;-75
2023/03/06 03:22:28;;;;;;;5.47;2.58;;;2.20;99.90;;;;;;5033326;28;20025;-75
2023/03/06 03:24:53;;;;;;;7.22;2.28;;;2.30;99.90;;;;;;5033172;28;20032;-75
2023/03/06 03:27:19;;;;;;;7.70;3.28;;;2.30;99.90;;;;;;5033304;28;20060;-75
2023/03/06 03:29:44;;;;;;;5.78;2.67;;;2.30;99.90;;;;;;5015964;28;20056;-75
2023/03/06 03:32:10;;;;;;;4.80;2.50;;;2.40;99.90;;;;;;5033282;28;20397;-76
2023/03/06 03:34:36;;;;;;;7.78;4.25;;;2.40;99.90;;;;;;5033255;28;20412;-75
2023/03/06 03:37:01;;;;;;;8.93;2.20;;;2.40;99.90;;;;;;5033186;28;20420;-75
2023/03/06 03:39:27;;;;;;;5.80;2.97;;;2.40;99.90;;;;;;5033794;28;20022;-75
2023/03/06 03:41:52;;;;;;;5.38;2.60;;;2.40;99.90;;;;;;5015475;28;20029;-75
2023/03/06 03:44:18;;;;;;;5.13;2.33;;;2.50;99.90;;;;;;5019077;28;20052;-74
2023/03/06 03:46:44;;;;;;;6.32;2.58;;;2.50;99.90;;;;;;5019159;28;20033;-75
2023/03/06 03:49:09;;;;;;;4.88;2.42;;;2.50;99.90;;;;;;5019208;28;20033;-75
2023/03/06 03:51:35;;;;;;;4.95;2.35;;;2.50;99.90;;;;;;5019163;28;20109;-75
2023/03/06 03:54:01;;;;;;;3.42;1.95;;;2.50;99.90;;;;;;5019066;28;20485;-75
2023/03/06 03:56:27;;;;;;;3.67;2.03;;;2.60;99.90;;;;;;5037097;28;20032;-75
2023/03/06 03:58:53;;;;;;;6.30;2.40;;;2.60;99.90;;;;;;5019039;28;20021;-75
2023/03/06 04:01:18;;;;;;;3.42;1.58;;;2.60;99.90;;;;;;5018984;28;20036;-75
2023/03/06 04:03:44;;;;;;;3.97;1.75;;;2.60;99.90;;;;;;5036864;28;20022;-75
2023/03/06 04:06:10;;;;;;;3.25;1.25;;;2.70;99.90;;;;;;5036711;28;20026;-75
2023/03/06 04:08:36;;;;;;;6.97;2.03;;;2.70;99.90;;;;;;5018897;28;20025;-75
2023/03/06 04:11:02;;;;;;;7.45;1.85;;;2.80;99.90;;;;;;5036481;28;20025;-75
2023/03/06 04:13:27;;;;;;;4.25;1.38;;;2.80;99.90;;;;;;5018983;28;20021;-75
2023/03/06 04:15:54;;;;;;;4.20;2.30;;;2.80;99.90;;;;;;5018885;28;20021;-75
2023/03/06 04:18:21;;;;;;;4.57;1.25;;;2.80;99.90;;;;;;5018893;28;20366;-75
2023/03/06 04:20:47;;;;;;;5.97;2.10;;;2.80;99.90;;;;;;5036564;28;20028;-75
2023/03/06 04:23:13;;;;;;;4.30;1.80;;;2.80;99.90;;;;;;5036913;28;20381;-75
2023/03/06 04:25:39;;;;;;;2.55;1.35;;;2.80;99.90;;;;;;5036303;28;20092;-75
2023/03/06 04:28:06;;;;;;;7.18;2.03;;;2.80;99.90;;;;;;5018392;28;20041;-75
2023/03/06 04:30:32;;;;;;;5.05;1.58;;;2.80;99.90;;;;;;5036230;28;20017;-75
2023/03/06 04:32:58;;;;;;;3.85;1.77;;;2.80;99.90;;;;;;5018332;28;20026;-75
2023/03/06 04:35:23;;;;;;;6.20;1.92;;;2.80;99.90;;;;;;5018440;28;20083;-75
2023/03/06 04:37:49;;;;;;;5.82;1.15;;;2.80;99.90;;;;;;5036591;28;20033;-75
2023/03/06 04:40:20;;;;;;;3.55;1.65;;;2.80;99.90;;;;;;5018382;28;20021;-75
2023/03/06 04:42:47;;;;;;;6.32;1.00;;;2.90;99.90;;;;;;5035894;28;20104;-75
2023/03/06 04:45:13;;;;;;;5.03;1.13;;;2.90;99.90;;;;;;5036184;28;20108;-74
2023/03/06 04:47:39;;;;;;;2.97;0.90;;;2.90;99.90;;;;;;5036055;28;20501;-74
2023/03/06 04:50:05;;;;;;;2.40;0.77;;;3.00;99.90;;;;;;5036009;28;20024;-74
2023/03/06 04:52:31;;;;;;;3.17;0.70;;;3.00;99.90;;;;;;5035747;28;20556;-74
2023/03/06 04:54:57;;;;;;;2.63;1.00;;;;;;;;;;5035454;28;20052;-74
2023/03/06 04:57:22;;;;;;;3.28;0.93;;;2.90;99.90;;;;;;5035949;28;20473;-75
2023/03/06 04:59:49;;;;;;;4.18;1.58;;;2.90;99.90;;;;;;5017738;28;20048;-75
2023/03/06 05:02:16;;;;;;;4.85;0.80;;;2.90;99.90;;;;;;5017867;28;20392;-74
2023/03/06 05:04:42;;;;;;;3.30;0.38;;;2.90;99.90;;;;;;5036114;28;20389;-75
2023/03/06 05:07:08;;;;;;;8.10;0.77;;;2.90;99.90;;;;;;5035616;28;20030;-74
2023/03/06 05:09:34;;;;;;;2.92;0.80;;;2.90;99.90;;;;;;5035607;28;20029;-75
2023/03/06 05:11:59;;;;;;;3.20;0.65;;;2.90;99.90;;;;;;5017726;28;20048;-74
2023/03/06 05:14:28;;;;;;;2.13;1.02;;;2.90;99.90;;;;;;5017981;28;20021;-74
2023/03/06 05:16:54;;;;;;;2.60;0.68;;;2.90;99.90;;;;;;5035341;28;20119;-74
2023/03/06 05:19:20;;;;;;;3.72;0.90;;;2.90;99.90;;;;;;5035328;28;20022;-74
2023/03/06 05:21:45;;;;;;;2.47;0.40;;;2.90;99.90;;;;;;5035703;28;20036;-75
2023/03/06 05:24:11;;;;;;;3.75;0.50;;;3.00;99.90;;;;;;5035351;28;20056;-74
2023/03/06 05:26:36;;;;;;;2.38;0.43;;;3.00;99.90;;;;;;5035156;28;20076;-74
2023/03/06 05:29:02;;;;;;;2.15;0.35;;;3.00;99.90;;;;;;5017245;28;20032;-75
2023/03/06 05:31:27;;;;;;;2.00;0.60;;;3.00;99.90;;;;;;5017150;28;20035;-75
2023/03/06 05:33:53;;;;;;;2.40;0.28;;;3.00;99.90;;;;;;5035291;28;20032;-75
2023/03/06 05:36:19;;;;;;;2.88;0.22;;;3.00;99.90;;;;;;5034971;28;20022;-75
2023/03/06 05:38:44;;;;;;;1.58;0.30;;;3.00;99.90;;;;;;5017121;28;20025;-75
2023/03/06 05:41:11;;;;;;;3.90;0.40;;;2.90;99.90;;;;;;5017098;28;20022;-75
2023/03/06 05:43:37;;;;;;;0.47;0.20;;;2.90;99.90;;;;;;5034773;28;20032;-75
2023/03/06 05:46:04;;;;;;;4.47;0.40;;;2.90;99.90;;;;;;5034837;28;20029;-75
2023/03/06 05:48:30;;;;;;;2.83;0.52;;;2.80;99.90;;;;;;5016926;28;20025;-75
2023/03/06 05:50:57;;;;;;;0.95;0.30;;;2.80;99.90;;;;;;5017012;28;20028;-75
2023/03/06 05:53:23;;;;;;;1.63;0.38;;;2.70;99.90;;;;;;5017088;28;20480;-74
2023/03/06 05:56:01;;;;;;;1.73;0.30;;;2.70;99.90;;;;;;5035091;28;20030;-75
2023/03/06 05:58:27;;;;;;;5.22;0.40;;;2.70;99.90;;;;;;5034661;28;20448;-75
2023/03/06 06:00:53;;;;;;;3.00;0.30;;;2.60;99.90;;;;;;5016867;28;20025;-75
2023/03/06 06:03:19;;;;;;;2.63;0.50;;;2.60;99.90;;;;;;5034374;28;20047;-75
2023/03/06 06:05:44;;;;;;;1.95;0.20;;;2.60;99.90;;;;;;5015888;28;20087;-75
2023/03/06 06:08:10;;;;;;;1.17;0.35;;;2.60;99.90;;;;;;5016836;28;20477;-75
2023/03/06 06:10:36;;;;;;;3.05;0.30;;;2.50;99.90;;;;;;5034340;28;20017;-74
2023/03/06 06:13:02;;;;;;;1.63;0.30;;;2.60;99.90;;;;;;5016627;28;20014;-74
2023/03/06 06:15:28;;;;;;;3.03;0.43;;;2.50;99.90;;;;;;5016704;28;20029;-74
2023/03/06 06:17:55;;;;;;;1.05;0.30;;;2.50;99.90;;;;;;5034233;28;20056;-74
2023/03/06 06:20:20;;;;;;;0.15;0.00;;;2.50;99.90;;;;;;5034286;28;20075;-74
2023/03/06 06:22:46;;;;;;;2.63;0.10;;;2.40;99.90;;;;;;5034871;28;20029;-74
2023/03/06 06:25:13;;;;;;;1.48;0.50;;;2.40;99.90;;;;;;5033964;28;20046;-74
2023/03/06 06:27:39;;;;;;;0.82;0.25;;;2.40;99.90;;;;;;5034201;28;20029;-74
2023/03/06 06:30:06;;;;;;;4.57;0.55;;;2.40;99.90;;;;;;5034719;28;20468;-74
2023/03/06 06:32:32;;;;;;;0.65;0.13;;;2.50;99.90;;;;;;5016034;28;20068;-75
2023/03/06 06:34:58;;;;;;;0.68;0.10;;;2.50;99.90;;;;;;5034142;28;20026;-75
2023/03/06 06:37:24;;;;;;;2.72;0.20;;;2.50;99.90;;;;;;5016283;28;20029;-75
2023/03/06 06:39:50;;;;;;;3.40;0.88;;;2.50;99.90;;;;;;5033963;28;20025;-75
2023/03/06 06:42:16;;;;;;;5.05;0.20;;;2.50;99.90;;;;;;5017530;28;20043;-75
2023/03/06 06:44:42;;;;;;;1.13;0.10;;;2.60;99.90;;;;;;5016179;28;20540;-75
2023/03/06 06:47:08;;;;;;;0.90;0.15;;;2.70;99.90;;;;;;5033684;28;20068;-75
2023/03/06 06:49:34;;;;;;;3.50;0.25;;;2.70;99.90;;;;;;5016035;28;20416;-75
2023/03/06 06:51:59;;;;;;;1.25;0.32;;;2.70;99.90;;;;;;5034116;28;20029;-75
2023/03/06 06:54:26;;;;;;;0.60;0.00;;;2.70;99.90;;;;;;5016913;28;20469;-76
2023/03/06 06:56:51;;;;;;;2.83;0.00;;;2.70;99.90;;;;;;5015846;28;20029;-75
2023/03/06 06:59:17;;;;;;;0.88;0.00;;;2.70;99.90;;;;;;5033686;28;20079;-75
2023/03/06 07:01:43;;;;;;;1.48;0.00;;;2.70;99.90;;;;;;5033961;28;20021;-75
2023/03/06 07:04:13;;;;;;;1.13;0.00;;;3.20;99.90;;;;;;5033644;28;20053;-75
2023/03/06 07:06:40;;;;;;;0.85;0.00;;;4.40;99.90;;;;;;5016422;28;20128;-75
2023/03/06 07:09:05;;;;;;;1.38;0.10;;;2.80;99.90;;;;;;5033594;28;20492;-75
2023/03/06 07:11:31;;;;;;;3.00;0.05;;;2.80;99.90;;;;;;5033318;28;20018;-75
2023/03/06 07:13:56;;;;;;;1.55;0.10;;;2.80;99.90;;;;;;5033363;28;20057;-75
2023/03/06 07:16:22;;;;;;;0.77;0.00;;;2.80;99.90;;;;;;5015713;28;20024;-75
2023/03/06 07:18:48;;;;;;;0.10;0.00;;;2.90;99.90;;;;;;5033586;28;20108;-75
2023/03/06 07:21:13;;;;;;;0.10;0.00;;;3.00;99.90;;;;;;5033323;28;20512;-75
2023/03/06 07:23:42;;;;;;;0.63;0.00;;;3.00;99.90;;;;;;5015648;28;20006;-74
2023/03/06 07:26:08;;;;;;;;;;;3.00;99.90;;;;;;5016031;28;20026;-75
2023/03/06 07:28:33;;;;;;;0.85;0.00;;;3.00;99.90;;;;;;5033400;28;20280;-75
2023/03/06 07:30:59;;;;;;;0.52;0.00;;;3.00;99.90;;;;;;5033059;28;20024;-75
2023/03/06 07:33:25;;;;;;;0.68;0.00;;;3.10;99.90;;;;;;5033195;28;20029;-75
2023/03/06 07:35:50;;;;;;;1.50;0.00;;;3.10;99.90;;;;;;5015661;28;20052;-75
2023/03/06 07:38:16;;;;;;;1.20;0.00;;;3.20;99.90;;;;;;5033180;28;20026;-75
2023/03/06 07:40:41;;;;;;;2.53;0.68;;;3.20;99.90;;;;;;5033229;28;20038;-75
2023/03/06 07:43:07;;;;;;;1.55;0.00;;;3.30;99.90;;;;;;5015476;28;20033;-75
2023/03/06 07:45:33;;;;;;;1.05;0.15;;;3.40;99.90;;;;;;5033107;28;20029;-75
2023/03/06 07:47:59;;;;;;;2.00;0.10;;;3.40;99.90;;;;;;5033269;28;20028;-75
2023/03/06 07:50:25;;;;;;;2.53;0.47;;;3.50;99.90;;;;;;5033306;28;20080;-75
2023/03/06 07:52:51;;;;;;;0.05;0.05;;;3.50;99.90;;;;;;5015355;28;20017;-75
2023/03/06 07:55:20;;;;;;;0.10;0.00;;;3.60;99.90;;;;;;5033208;28;20094;-75
2023/03/06 07:57:49;;;;;;;1.35;0.00;;;3.60;99.90;;;;;;5015418;28;20436;-75
2023/03/06 08:00:14;;;;;;;;;;;3.70;99.90;;;;;;5033428;28;20052;-75
2023/03/06 08:02:41;;;;;;;0.85;0.00;;;3.80;99.90;;;;;;5032882;28;19905;-75
2023/03/06 08:05:08;;;;;;;0.13;0.00;;;3.80;99.90;;;;;;5033019;28;20033;-75
2023/03/06 08:07:34;;;;;;;2.05;0.00;;;3.80;99.90;;;;;;5032930;28;20056;-75
2023/03/06 08:10:00;;;;;;;1.85;0.00;;;3.80;99.90;;;;;;5015458;28;20014;-74
2023/03/06 08:12:26;;;;;;;1.08;0.00;;;3.90;99.90;;;;;;5032708;28;20018;-75
2023/03/06 08:14:51;;;;;;;4.03;0.10;;;3.90;99.90;;;;;;5015289;28;20032;-74
2023/03/06 08:17:17;;;;;;;0.38;0.10;;;3.90;99.90;;;;;;5015162;28;20021;-74
2023/03/06 08:19:42;;;;;;;2.30;0.17;;;4.00;99.90;;;;;;5032876;28;20117;-75
2023/03/06 08:22:09;;;;;;;0.77;0.00;;;4.10;99.90;;;;;;5014989;28;20017;-75
2023/03/06 08:24:35;;;;;;;0.00;0.00;;;4.10;99.90;;;;;;5032785;28;20538;-75
2023/03/06 08:27:01;;;;;;;0.73;0.00;;;4.10;99.90;;;;;;5032700;28;20017;-75
2023/03/06 08:29:27;;;;;;;2.10;0.00;;;4.10;99.90;;;;;;5034749;28;20032;-75
2023/03/06 08:31:52;;;;;;;2.22;0.55;;;4.20;99.90;;;;;;5036156;28;20497;-75
2023/03/06 08:34:20;;;;;;;0.70;0.00;;;4.30;99.90;;;;;;5019053;28;20017;-75
2023/03/06 08:36:46;;;;;;;1.27;0.00;;;4.50;99.90;;;;;;5018491;28;20025;-75
2023/03/06 08:39:12;;;;;;;0.63;0.00;;;4.60;99.90;;;;;;5018389;28;20432;-75
2023/03/06 08:41:39;;;;;;;0.03;0.00;;;4.60;99.90;;;;;;5036091;28;20022;-75
2023/03/06 08:44:05;;;;;;;1.40;0.00;;;4.60;99.90;;;;;;5036056;28;20044;-75
2023/03/06 08:46:33;;;;;;;1.00;0.00;;;4.60;99.90;;;;;;5018194;28;20018;-75
2023/03/06 08:48:59;;;;;;;2.45;0.43;;;4.70;99.90;;;;;;5035966;28;20412;-75
2023/03/06 08:51:26;;;;;;;1.23;0.10;;;4.80;99.90;;;;;;5035936;28;20064;-75
2023/03/06 08:53:52;;;;;;;4.40;0.00;;;4.80;99.90;;;;;;5018244;28;20108;-75
2023/03/06 08:56:24;;;;;;;0.70;0.00;;;4.90;99.90;;;;;;5017927;28;20441;-75
2023/03/06 08:58:50;;;;;;;0.10;0.00;;;4.90;99.90;;;;;;5035803;28;20032;-74
2023/03/06 09:01:22;;;;;;;0.88;0.00;;;5.00;99.90;;;;;;5035576;28;20032;-74
2023/03/06 09:03:48;;;;;;;0.55;0.00;;;5.00;99.90;;;;;;5035706;28;20049;-75
2023/03/06 09:06:15;;;;;;;1.17;0.25;;;5.20;99.90;;;;;;5017869;28;20041;-75
2023/03/06 09:08:42;;;;;;;0.57;0.00;;;5.20;99.90;;;;;;5017748;28;20018;-75
2023/03/06 09:11:09;;;;;;;0.30;0.00;;;5.30;99.90;;;;;;5017649;28;20033;-74
2023/03/06 09:13:35;;;;;;;0.45;0.00;;;5.30;99.90;;;;;;5017784;28;20033;-74
2023/03/06 09:16:01;;;;;;;0.10;0.05;;;5.30;99.90;;;;;;5035286;28;20033;-74
2023/03/06 09:18:28;;;;;;;0.80;0.00;;;5.40;99.90;;;;;;5035489;28;20036;-74
2023/03/06 09:20:54;;;;;;;2.30;0.00;;;5.60;99.90;;;;;;5017590;28;20032;-74
2023/03/06 09:23:19;;;;;;;0.10;0.00;;;5.80;99.90;;;;;;5035714;28;20116;-74
2023/03/06 09:25:53;;;;;;;2.50;0.17;;;5.70;99.90;;;;;;5035144;28;20049;-74
2023/03/06 09:28:19;;;;;;;1.27;0.00;;;5.90;99.90;;;;;;5035292;28;20535;-74
2023/03/06 09:30:44;;;;;;;0.85;0.00;;;6.10;99.90;;;;;;5017398;28;20025;-74
2023/03/06 09:33:10;;;;;;;1.00;0.00;;;6.20;99.90;;;;;;5017074;28;20022;-74
2023/03/06 09:35:48;;;;;;;0.65;0.00;;;6.20;99.90;;;;;;5035177;28;20030;-74
2023/03/06 09:38:13;;;;;;;0.00;0.00;;;6.40;99.90;;;;;;5035185;28;20148;-74
2023/03/06 09:41:00;;;;;;;0.57;0.00;;;6.50;99.90;;;;;;5016213;28;20079;-74
2023/03/06 09:43:40;;;;;;;0.98;0.00;;;6.60;99.90;;;;;;5017074;28;20428;-74
2023/03/06 09:46:24;;;;;;;0.43;0.00;;;6.50;99.90;;;;;;5035334;28;20424;-74
2023/03/06 09:49:09;;;;;;;1.00;0.00;;;6.40;99.90;;;;;;5017258;28;20032;-75
2023/03/06 09:52:07;;;;;;;1.00;0.05;;;6.40;99.90;;;;;;5035207;28;20029;-75
2023/03/06 09:54:40;;;;;;;0.10;0.00;;;6.60;99.90;;;;;;5035116;28;20101;-75
2023/03/06 09:57:19;;;;;;;0.22;0.00;;;6.80;99.90;;;;;;5034952;28;20268;-74
2023/03/06 09:59:49;;;;;;;0.00;0.00;;;6.90;99.90;;;;;;5034786;28;20033;-75
2023/03/06 10:02:37;;;;;;;0.05;0.00;;;7.00;99.90;;;;;;5016671;28;20040;-75
2023/03/06 10:05:08;;;;;;;1.85;0.10;;;7.10;99.90;;;;;;5016852;28;20022;-75
2023/03/06 10:08:10;;;;;;;0.00;0.00;;;7.20;99.90;;;;;;5016635;28;20029;-75
2023/03/06 10:11:02;;;;;;;0.28;0.28;;;7.10;99.90;;;;;;5034443;28;20025;-76
2023/03/06 10:13:44;;;;;;;0.00;0.00;;;7.20;99.90;;;;;;5016672;28;20387;-77
2023/03/06 10:16:30;;;;;;;0.10;0.00;;;7.20;99.90;;;;;;5034279;28;20028;-77
2023/03/06 10:19:01;;;;;;;2.85;0.43;;;7.10;99.90;;;;;;5016865;28;20369;-77
2023/03/06 10:21:53;;;;;;;1.25;0.00;;;7.10;99.90;;;;;;5016562;28;20434;-77
2023/03/06 10:24:24;;;;;;;0.00;0.00;;;7.30;99.90;;;;;;5016344;28;20497;-77
2023/03/06 10:27:20;;;;;;;0.00;0.00;;;7.40;99.90;;;;;;5033922;28;20112;-77
2023/03/06 10:29:50;;;;;;;0.00;0.00;;;7.30;99.90;;;;;;5016425;28;20476;-77
2023/03/06 10:32:32;;;;;;;0.70;0.00;;;7.30;99.90;;;;;;5016076;28;20112;-77
2023/03/06 10:35:00;;;;;;;0.10;0.00;;;7.30;99.90;;;;;;5016413;28;20477;-77
2023/03/06 10:37:29;;;;;;;0.00;0.00;;;7.40;99.90;;;;;;5034180;28;20101;-77
2023/03/06 10:40:03;;;;;;;0.10;0.00;;;7.40;99.90;;;;;;5033956;28;20026;-77
2023/03/06 10:42:29;;;;;;;0.47;0.00;;;7.50;99.90;;;;;;5016266;28;20021;-77
2023/03/06 10:45:13;;;;;;;0.00;0.00;;;7.50;99.90;;;;;;5033819;28;20366;-77
2023/03/06 10:47:40;;;;;;;0.98;0.00;;;7.60;99.90;;;;;;5033945;28;20084;-77
2023/03/06 10:50:29;;;;;;;1.10;0.00;;;7.70;99.90;;;;;;5016186;28;20021;-77
2023/03/06 10:53:01;;;;;;;0.00;0.00;;;7.90;99.90;;;;;;5015802;28;20489;-77
2023/03/06 10:55:34;;;;;;;0.17;0.00;;;8.10;99.90;;;;;;5015824;28;20033;-77
2023/03/06 10:58:17;;;;;;;0.00;0.00;;;8.00;99.90;;;;;;5016049;28;20021;-77
2023/03/06 11:00:43;;;;;;;1.27;0.00;;;7.90;99.90;;;;;;5034499;28;20084;-77
2023/03/06 11:03:22;;;;;;;0.45;0.00;;;7.90;99.90;;;;;;5015748;28;20499;-77
2023/03/06 11:05:57;;;;;;;0.60;0.00;;;8.00;99.90;;;;;;5033411;28;20021;-77
2023/03/06 11:08:23;;;;;;;3.95;0.00;;;8.00;99.90;;;;;;5015840;28;20045;-77
2023/03/06 11:11:03;;;;;;;0.05;0.00;;;7.90;99.90;;;;;;5033523;28;20026;-77
2023/03/06 11:13:31;;;;;;;1.80;0.10;;;8.10;99.90;;;;;;5015723;28;20071;-77
2023/03/06 11:15:59;;;;;;;0.40;0.00;;;8.20;99.90;;;;;;5015607;28;20504;-77
2023/03/06 11:18:33;;;;;;;0.20;0.00;;;8.00;99.90;;;;;;5033334;28;20105;-77
2023/03/06 11:21:06;;;;;;;0.28;0.00;;;8.00;99.90;;;;;;5033345;28;20385;-77
2023/03/06 11:23:42;;;;;;;0.15;0.00;;;8.00;99.90;;;;;;5033498;28;20026;-78
2023/03/06 11:26:16;;;;;;;1.75;0.00;;;7.90;99.90;;;;;;5033735;28;20108;-77
2023/03/06 11:28:44;;;;;;;1.35;0.00;;;8.00;99.90;;;;;;5015790;28;20033;-77
2023/03/06 11:31:17;;;;;;;2.03;0.52;;;7.90;99.90;;;;;;5033693;28;20062;-77
2023/03/06 11:34:10;;;;;;;0.17;0.00;;;7.70;99.90;;;;;;5033209;28;20031;-77
2023/03/06 11:36:54;;;;;;;2.80;0.25;;;7.80;99.90;;;;;;5015567;28;20128;-77
2023/03/06 11:40:01;;;;;;;2.60;0.00;;;7.70;99.90;;;;;;5015497;28;20477;-77
2023/03/06 11:42:57;;;;;;;1.08;0.00;;;7.70;99.90;;;;;;5032630;28;20042;-77
2023/03/06 11:45:36;;;;;;;1.65;0.13;;;7.70;99.90;;;;;;5033195;28;20366;-77
2023/03/06 11:48:13;;;;;;;1.38;0.00;;;7.90;99.90;;;;;;5033129;28;20026;-76
2023/03/06 11:50:48;;;;;;;3.25;0.00;;;8.00;99.90;;;;;;5015507;28;20057;-77
2023/03/06 11:53:36;;;;;;;1.40;0.10;;;8.00;99.90;;;;;;5033374;28;20033;-77
2023/03/06 11:56:19;;;;;;;0.32;0.00;;;8.00;99.90;;;;;;5015654;28;20056;-77
2023/03/06 11:58:57;;;;;;;0.55;0.00;;;7.70;99.90;;;;;;5015452;28;20452;-77
2023/03/06 12:01:41;;;;;;;0.10;0.00;;;7.70;99.90;;;;;;5033086;28;20036;-77
2023/03/06 12:04:40;;;;;;;1.27;0.22;;;7.80;99.90;;;;;;5017115;28;20388;-77
2023/03/06 12:07:23;;;;;;;0.20;0.00;;;7.90;99.90;;;;;;5019213;28;20025;-77
2023/03/06 12:10:10;;;;;;;0.85;0.15;;;8.00;99.90;;;;;;5018921;28;20053;-77
2023/03/06 12:13:02;;;;;;;0.35;0.00;;;8.10;99.90;;;;;;5018968;28;20484;-77
2023/03/06 12:15:56;;;;;;;1.55;0.28;;;8.10;99.90;;;;;;5018681;28;20030;-77
2023/03/06 12:18:51;;;;;;;3.47;0.50;;;8.00;99.90;;;;;;5037163;28;20500;-77
2023/03/06 12:21:29;;;;;;;2.20;0.00;;;8.20;99.90;;;;;;5018656;28;20033;-77
2023/03/06 12:24:07;;;;;;;0.30;0.00;;;8.30;99.90;;;;;;5036489;28;20507;-77
2023/03/06 12:26:53;;;;;;;2.53;0.10;;;8.40;99.90;;;;;;5018709;28;20025;-77
2023/03/06 12:29:39;;;;;;;1.55;0.08;;;8.60;99.90;;;;;;5018502;28;20018;-77
2023/03/06 12:32:33;;;;;;;0.43;0.10;;;8.80;99.90;;;;;;5018076;28;20045;-77
2023/03/06 12:35:24;;;;;;;0.65;0.20;;;9.10;99.90;;;;;;5018491;28;20022;-77
2023/03/06 12:38:04;;;;;;;3.28;0.40;;;9.10;99.90;;;;;;5036134;28;20096;-77
2023/03/06 12:40:59;;;;;;;2.17;0.25;;;9.10;99.90;;;;;;5018372;28;20380;-77
2023/03/06 12:43:51;;;;;;;2.17;0.43;;;8.90;99.90;;;;;;5007683;28;20041;-77
2023/03/06 12:46:26;;;;;;;1.88;0.85;;;8.70;99.90;;;;;;5036414;28;20354;-77
2023/03/06 12:49:07;;;;;;;3.05;0.60;;;8.50;99.90;;;;;;5018132;28;20045;-77
2023/03/06 12:51:33;;;;;;;3.22;1.00;;;8.50;99.90;;;;;;5035915;28;20117;-77
2023/03/06 12:54:01;;;;;;;5.22;1.45;;;8.40;99.90;;;;;;5018273;28;20457;-77
2023/03/06 12:56:29;;;;;;;4.35;0.88;;;8.60;99.90;;;;;;5018052;28;20116;-77
2023/03/06 12:58:57;;;;;;;2.88;1.10;;;8.40;99.90;;;;;;5035735;28;20030;-75
2023/03/06 13:01:43;;;;;;;2.05;0.80;;;8.50;99.90;;;;;;5035556;28;20021;-77
2023/03/06 13:04:21;;;;;;;5.95;1.65;;;8.40;99.90;;;;;;5017764;28;20025;-77
2023/03/06 13:06:57;;;;;;;2.65;1.10;;;8.40;99.90;;;;;;5017885;28;20550;-77
2023/03/06 13:09:53;;;;;;;5.55;1.92;;;8.20;99.90;;;;;;5036117;28;20045;-77
2023/03/06 13:12:34;;;;;;;4.97;1.90;;;8.00;99.90;;;;;;5017679;28;20021;-77